sensor_id;sensor_type;location;lat;lon;timestamp;pressure;altitude;pressure_sealevel;temperature;humidity
75424;BME280;64005;55.160;36.002;2024-01-06T00:01:12;98625.44;;;-15.69;65.15
75424;BME280;64005;55.160;36.002;2024-01-06T00:03:40;98632.03;;;-15.65;65.08
75424;BME280;64005;55.160;36.002;2024-01-06T00:06:08;98624.16;;;-15.59;64.92
75424;BME280;64005;55.160;36.002;2024-01-06T00:08:38;98630.22;;;-15.50;64.91
75424;BME280;64005;55.160;36.002;2024-01-06T00:11:05;98628.19;;;-15.48;64.52
75424;BME280;64005;55.160;36.002;2024-01-06T00:13:32;98631.34;;;-15.45;64.71
75424;BME280;64005;55.160;36.002;2024-01-06T00:16:01;98638.59;;;-15.39;64.91
75424;BME280;64005;55.160;36.002;2024-01-06T00:18:28;98637.44;;;-15.36;64.51
75424;BME280;64005;55.160;36.002;2024-01-06T00:20:55;98628.59;;;-15.37;64.57
75424;BME280;64005;55.160;36.002;2024-01-06T00:23:23;98634.94;;;-15.38;65.07
75424;BME280;64005;55.160;36.002;2024-01-06T00:25:50;98638.25;;;-15.36;64.78
75424;BME280;64005;55.160;36.002;2024-01-06T00:28:17;98635.78;;;-15.37;65.33
75424;BME280;64005;55.160;36.002;2024-01-06T00:30:45;98634.94;;;-15.38;64.74
75424;BME280;64005;55.160;36.002;2024-01-06T00:33:13;98623.44;;;-15.38;64.79
75424;BME280;64005;55.160;36.002;2024-01-06T00:35:41;98618.47;;;-15.41;64.90
75424;BME280;64005;55.160;36.002;2024-01-06T00:38:08;98615.78;;;-15.41;64.86
75424;BME280;64005;55.160;36.002;2024-01-06T00:40:35;98621.13;;;-15.41;64.88
75424;BME280;64005;55.160;36.002;2024-01-06T00:43:03;98620.22;;;-15.34;64.70
75424;BME280;64005;55.160;36.002;2024-01-06T00:45:30;98623.53;;;-15.32;65.17
75424;BME280;64005;55.160;36.002;2024-01-06T00:47:57;98629.44;;;-15.36;64.82
75424;BME280;64005;55.160;36.002;2024-01-06T00:50:25;98623.78;;;-15.41;65.55
75424;BME280;64005;55.160;36.002;2024-01-06T00:52:52;98621.22;;;-15.49;65.12
75424;BME280;64005;55.160;36.002;2024-01-06T00:55:20;98634.56;;;-15.49;65.77
75424;BME280;64005;55.160;36.002;2024-01-06T00:57:47;98634.00;;;-15.45;65.66
75424;BME280;64005;55.160;36.002;2024-01-06T01:00:14;98633.63;;;-15.42;65.82
75424;BME280;64005;55.160;36.002;2024-01-06T01:02:42;98641.94;;;-15.37;65.12
75424;BME280;64005;55.160;36.002;2024-01-06T01:05:09;98641.72;;;-15.35;65.42
75424;BME280;64005;55.160;36.002;2024-01-06T01:07:38;98639.38;;;-15.30;65.21
75424;BME280;64005;55.160;36.002;2024-01-06T01:10:06;98635.22;;;-15.33;65.81
75424;BME280;64005;55.160;36.002;2024-01-06T01:12:34;98642.56;;;-15.35;66.01
75424;BME280;64005;55.160;36.002;2024-01-06T01:15:02;98643.22;;;-15.33;66.01
75424;BME280;64005;55.160;36.002;2024-01-06T01:17:31;98640.47;;;-15.24;66.00
75424;BME280;64005;55.160;36.002;2024-01-06T01:19:58;98636.59;;;-15.22;65.92
75424;BME280;64005;55.160;36.002;2024-01-06T01:22:25;98643.81;;;-15.22;65.83
75424;BME280;64005;55.160;36.002;2024-01-06T01:24:54;98649.13;;;-15.22;65.79
75424;BME280;64005;55.160;36.002;2024-01-06T01:27:21;98648.75;;;-15.19;65.49
75424;BME280;64005;55.160;36.002;2024-01-06T01:29:48;98643.25;;;-15.18;65.56
75424;BME280;64005;55.160;36.002;2024-01-06T01:32:18;98636.69;;;-15.15;65.60
75424;BME280;64005;55.160;36.002;2024-01-06T01:34:45;98639.19;;;-15.14;65.36
75424;BME280;64005;55.160;36.002;2024-01-06T01:37:12;98639.84;;;-15.12;65.71
75424;BME280;64005;55.160;36.002;2024-01-06T01:39:40;98648.50;;;-15.10;65.74
75424;BME280;64005;55.160;36.002;2024-01-06T01:42:09;98639.47;;;-15.09;65.54
75424;BME280;64005;55.160;36.002;2024-01-06T01:44:36;98628.78;;;-15.09;65.11
75424;BME280;64005;55.160;36.002;2024-01-06T01:47:04;98617.03;;;-15.14;65.64
75424;BME280;64005;55.160;36.002;2024-01-06T01:49:32;98621.63;;;-15.08;65.28
75424;BME280;64005;55.160;36.002;2024-01-06T01:51:59;98628.34;;;-15.12;65.54
75424;BME280;64005;55.160;36.002;2024-01-06T01:54:27;98630.75;;;-15.17;65.25
75424;BME280;64005;55.160;36.002;2024-01-06T01:56:54;98636.19;;;-15.11;65.45
75424;BME280;64005;55.160;36.002;2024-01-06T01:59:23;98641.50;;;-15.11;65.35
75424;BME280;64005;55.160;36.002;2024-01-06T02:01:50;98639.84;;;-15.12;65.18
75424;BME280;64005;55.160;36.002;2024-01-06T02:04:17;98640.69;;;-15.11;64.99
75424;BME280;64005;55.160;36.002;2024-01-06T02:06:45;98631.03;;;-15.12;65.18
75424;BME280;64005;55.160;36.002;2024-01-06T02:09:12;98640.84;;;-15.13;65.05
75424;BME280;64005;55.160;36.002;2024-01-06T02:11:39;98637.75;;;-15.16;65.08
75424;BME280;64005;55.160;36.002;2024-01-06T02:14:06;98637.09;;;-15.18;65.37
75424;BME280;64005;55.160;36.002;2024-01-06T02:16:35;98622.91;;;-15.19;64.99
75424;BME280;64005;55.160;36.002;2024-01-06T02:19:02;98629.91;;;-15.18;65.64
75424;BME280;64005;55.160;36.002;2024-01-06T02:21:31;98629.25;;;-15.20;65.24
75424;BME280;64005;55.160;36.002;2024-01-06T02:24:03;98619.25;;;-15.18;65.35
75424;BME280;64005;55.160;36.002;2024-01-06T02:26:30;98621.91;;;-15.18;65.18
75424;BME280;64005;55.160;36.002;2024-01-06T02:28:57;98630.84;;;-15.11;64.86
75424;BME280;64005;55.160;36.002;2024-01-06T02:31:25;98623.84;;;-15.12;64.89
75424;BME280;64005;55.160;36.002;2024-01-06T02:33:52;98613.53;;;-15.15;64.84
75424;BME280;64005;55.160;36.002;2024-01-06T02:36:19;98625.59;;;-15.19;65.25
75424;BME280;64005;55.160;36.002;2024-01-06T02:38:46;98626.75;;;-15.21;65.42
75424;BME280;64005;55.160;36.002;2024-01-06T02:41:15;98624.94;;;-15.21;65.47
75424;BME280;64005;55.160;36.002;2024-01-06T02:43:42;98621.25;;;-15.20;65.37
75424;BME280;64005;55.160;36.002;2024-01-06T02:46:09;98621.06;;;-15.18;65.73
75424;BME280;64005;55.160;36.002;2024-01-06T02:48:36;98617.59;;;-15.19;65.69
75424;BME280;64005;55.160;36.002;2024-01-06T02:51:03;98611.91;;;-15.16;65.48
75424;BME280;64005;55.160;36.002;2024-01-06T02:53:31;98602.69;;;-15.13;65.40
75424;BME280;64005;55.160;36.002;2024-01-06T02:55:58;98592.66;;;-15.11;65.13
75424;BME280;64005;55.160;36.002;2024-01-06T02:58:27;98608.19;;;-15.15;65.51
75424;BME280;64005;55.160;36.002;2024-01-06T03:00:54;98611.25;;;-15.18;65.46
75424;BME280;64005;55.160;36.002;2024-01-06T03:03:21;98624.69;;;-15.11;65.72
75424;BME280;64005;55.160;36.002;2024-01-06T03:05:48;98618.34;;;-15.10;65.10
75424;BME280;64005;55.160;36.002;2024-01-06T03:08:15;98612.69;;;-15.15;65.23
75424;BME280;64005;55.160;36.002;2024-01-06T03:10:43;98596.59;;;-15.22;65.78
75424;BME280;64005;55.160;36.002;2024-01-06T03:13:10;98605.81;;;-15.24;65.79
75424;BME280;64005;55.160;36.002;2024-01-06T03:15:39;98596.81;;;-15.23;65.63
75424;BME280;64005;55.160;36.002;2024-01-06T03:18:06;98616.09;;;-15.21;65.53
75424;BME280;64005;55.160;36.002;2024-01-06T03:20:34;98604.25;;;-15.19;65.39
75424;BME280;64005;55.160;36.002;2024-01-06T03:23:01;98602.59;;;-15.20;65.29
75424;BME280;64005;55.160;36.002;2024-01-06T03:25:28;98606.09;;;-15.19;65.65
75424;BME280;64005;55.160;36.002;2024-01-06T03:27:55;98602.84;;;-15.15;65.08
75424;BME280;64005;55.160;36.002;2024-01-06T03:30:23;98610.50;;;-15.12;65.43
75424;BME280;64005;55.160;36.002;2024-01-06T03:32:51;98603.44;;;-15.05;65.46
75424;BME280;64005;55.160;36.002;2024-01-06T03:35:18;98603.44;;;-15.05;65.07
75424;BME280;64005;55.160;36.002;2024-01-06T03:37:45;98599.84;;;-15.12;65.26
75424;BME280;64005;55.160;36.002;2024-01-06T03:40:13;98600.00;;;-15.13;65.42
75424;BME280;64005;55.160;36.002;2024-01-06T03:42:40;98582.06;;;-15.19;65.91
75424;BME280;64005;55.160;36.002;2024-01-06T03:45:08;98579.41;;;-15.19;65.93
75424;BME280;64005;55.160;36.002;2024-01-06T03:47:35;98585.94;;;-15.22;65.54
75424;BME280;64005;55.160;36.002;2024-01-06T03:50:04;98581.81;;;-15.24;65.97
75424;BME280;64005;55.160;36.002;2024-01-06T03:52:31;98579.41;;;-15.19;66.15
75424;BME280;64005;55.160;36.002;2024-01-06T03:54:58;98585.41;;;-15.17;65.98
75424;BME280;64005;55.160;36.002;2024-01-06T03:57:26;98589.34;;;-15.13;65.61
75424;BME280;64005;55.160;36.002;2024-01-06T03:59:53;98582.19;;;-15.13;65.42
75424;BME280;64005;55.160;36.002;2024-01-06T04:02:20;98599.34;;;-15.15;66.04
75424;BME280;64005;55.160;36.002;2024-01-06T04:04:47;98589.00;;;-15.10;65.99
75424;BME280;64005;55.160;36.002;2024-01-06T04:07:16;98582.09;;;-15.05;65.67
75424;BME280;64005;55.160;36.002;2024-01-06T04:09:43;98583.28;;;-15.07;65.70
75424;BME280;64005;55.160;36.002;2024-01-06T04:12:10;98585.50;;;-15.11;65.75
75424;BME280;64005;55.160;36.002;2024-01-06T04:14:37;98580.34;;;-15.12;66.04
75424;BME280;64005;55.160;36.002;2024-01-06T04:17:05;98590.28;;;-15.06;65.65
75424;BME280;64005;55.160;36.002;2024-01-06T04:19:32;98588.06;;;-15.03;66.18
75424;BME280;64005;55.160;36.002;2024-01-06T04:21:59;98578.69;;;-14.99;65.67
75424;BME280;64005;55.160;36.002;2024-01-06T04:24:28;98597.34;;;-14.99;66.10
75424;BME280;64005;55.160;36.002;2024-01-06T04:26:56;98590.19;;;-14.98;66.30
75424;BME280;64005;55.160;36.002;2024-01-06T04:29:23;98602.97;;;-14.94;65.96
75424;BME280;64005;55.160;36.002;2024-01-06T04:31:50;98606.28;;;-14.92;66.16
75424;BME280;64005;55.160;36.002;2024-01-06T04:34:17;98607.28;;;-14.93;65.97
75424;BME280;64005;55.160;36.002;2024-01-06T04:36:44;98608.03;;;-14.84;66.53
75424;BME280;64005;55.160;36.002;2024-01-06T04:39:11;98608.31;;;-14.79;66.41
75424;BME280;64005;55.160;36.002;2024-01-06T04:41:41;98604.81;;;-14.79;66.47
75424;BME280;64005;55.160;36.002;2024-01-06T04:44:08;98611.06;;;-14.87;66.59
75424;BME280;64005;55.160;36.002;2024-01-06T04:46:35;98597.09;;;-14.89;66.88
75424;BME280;64005;55.160;36.002;2024-01-06T04:49:02;98604.88;;;-14.87;67.03
75424;BME280;64005;55.160;36.002;2024-01-06T04:51:29;98591.19;;;-14.84;67.10
75424;BME280;64005;55.160;36.002;2024-01-06T04:53:56;98608.31;;;-14.79;67.02
75424;BME280;64005;55.160;36.002;2024-01-06T04:56:24;98609.22;;;-14.72;66.87
75424;BME280;64005;55.160;36.002;2024-01-06T04:58:52;98613.56;;;-14.71;66.83
75424;BME280;64005;55.160;36.002;2024-01-06T05:01:20;98617.22;;;-14.72;66.88
75424;BME280;64005;55.160;36.002;2024-01-06T05:03:47;98610.88;;;-14.71;67.07
75424;BME280;64005;55.160;36.002;2024-01-06T05:06:14;98614.38;;;-14.70;67.17
75424;BME280;64005;55.160;36.002;2024-01-06T05:08:41;98619.91;;;-14.72;67.15
75424;BME280;64005;55.160;36.002;2024-01-06T05:11:11;98615.22;;;-14.70;67.05
75424;BME280;64005;55.160;36.002;2024-01-06T05:13:38;98617.03;;;-14.70;67.01
75424;BME280;64005;55.160;36.002;2024-01-06T05:16:07;98618.72;;;-14.69;67.11
75424;BME280;64005;55.160;36.002;2024-01-06T05:18:34;98615.00;;;-14.68;67.20
75424;BME280;64005;55.160;36.002;2024-01-06T05:21:02;98618.50;;;-14.68;67.10
75424;BME280;64005;55.160;36.002;2024-01-06T05:23:29;98611.13;;;-14.66;67.14
75424;BME280;64005;55.160;36.002;2024-01-06T05:25:56;98614.06;;;-14.61;67.16
75424;BME280;64005;55.160;36.002;2024-01-06T05:28:23;98609.38;;;-14.59;67.08
75424;BME280;64005;55.160;36.002;2024-01-06T05:30:51;98606.91;;;-14.60;67.19
75424;BME280;64005;55.160;36.002;2024-01-06T05:33:19;98602.03;;;-14.57;66.99
75424;BME280;64005;55.160;36.002;2024-01-06T05:35:46;98611.88;;;-14.57;66.88
75424;BME280;64005;55.160;36.002;2024-01-06T05:38:13;98611.66;;;-14.56;66.81
75424;BME280;64005;55.160;36.002;2024-01-06T05:40:41;98611.66;;;-14.56;67.20
75424;BME280;64005;55.160;36.002;2024-01-06T05:43:08;98613.53;;;-14.56;66.92
75424;BME280;64005;55.160;36.002;2024-01-06T05:45:35;98610.41;;;-14.60;67.09
75424;BME280;64005;55.160;36.002;2024-01-06T05:48:05;98621.00;;;-14.66;67.18
75424;BME280;64005;55.160;36.002;2024-01-06T05:50:36;98607.00;;;-14.68;67.69
75424;BME280;64005;55.160;36.002;2024-01-06T05:53:04;98619.81;;;-14.64;67.39
75424;BME280;64005;55.160;36.002;2024-01-06T05:55:32;98622.91;;;-14.60;67.11
75424;BME280;64005;55.160;36.002;2024-01-06T05:57:59;98624.75;;;-14.61;67.08
75424;BME280;64005;55.160;36.002;2024-01-06T06:00:26;98619.34;;;-14.67;67.39
75424;BME280;64005;55.160;36.002;2024-01-06T06:02:53;98621.16;;;-14.68;67.30
75424;BME280;64005;55.160;36.002;2024-01-06T06:05:21;98622.19;;;-14.69;67.62
75424;BME280;64005;55.160;36.002;2024-01-06T06:07:49;98627.34;;;-14.67;67.58
75424;BME280;64005;55.160;36.002;2024-01-06T06:10:17;98617.56;;;-14.60;67.45
75424;BME280;64005;55.160;36.002;2024-01-06T06:12:45;98624.56;;;-14.59;67.31
75424;BME280;64005;55.160;36.002;2024-01-06T06:15:12;98620.06;;;-14.59;67.23
75424;BME280;64005;55.160;36.002;2024-01-06T06:17:39;98615.09;;;-14.62;67.68
75424;BME280;64005;55.160;36.002;2024-01-06T06:20:07;98625.22;;;-14.57;67.32
75424;BME280;64005;55.160;36.002;2024-01-06T06:22:34;98614.44;;;-14.49;67.44
75424;BME280;64005;55.160;36.002;2024-01-06T06:25:04;98610.13;;;-14.50;67.62
75424;BME280;64005;55.160;36.002;2024-01-06T06:27:31;98614.25;;;-14.47;67.80
75424;BME280;64005;55.160;36.002;2024-01-06T06:29:58;98618.56;;;-14.46;67.50
75424;BME280;64005;55.160;36.002;2024-01-06T06:32:25;98613.06;;;-14.45;67.70
75424;BME280;64005;55.160;36.002;2024-01-06T06:34:52;98618.84;;;-14.41;67.91
75424;BME280;64005;55.160;36.002;2024-01-06T06:37:20;98611.97;;;-14.29;67.43
75424;BME280;64005;55.160;36.002;2024-01-06T06:39:47;98614.50;;;-14.21;67.25
75424;BME280;64005;55.160;36.002;2024-01-06T06:42:15;98616.34;;;-14.22;67.34
75424;BME280;64005;55.160;36.002;2024-01-06T06:44:43;98618.66;;;-14.19;67.42
75424;BME280;64005;55.160;36.002;2024-01-06T06:47:10;98613.97;;;-14.17;67.12
75424;BME280;64005;55.160;36.002;2024-01-06T06:49:37;98614.34;;;-14.20;67.64
75424;BME280;64005;55.160;36.002;2024-01-06T06:52:04;98614.34;;;-14.20;67.70
75424;BME280;64005;55.160;36.002;2024-01-06T06:54:33;98615.16;;;-14.19;67.86
75424;BME280;64005;55.160;36.002;2024-01-06T06:57:00;98622.16;;;-14.18;68.03
75424;BME280;64005;55.160;36.002;2024-01-06T06:59:29;98617.91;;;-14.13;68.02
75424;BME280;64005;55.160;36.002;2024-01-06T07:01:56;98626.66;;;-14.04;68.51
75424;BME280;64005;55.160;36.002;2024-01-06T07:04:23;98629.31;;;-14.04;68.38
75424;BME280;64005;55.160;36.002;2024-01-06T07:06:51;98634.44;;;-14.02;68.38
75424;BME280;64005;55.160;36.002;2024-01-06T07:09:18;98639.25;;;-13.98;68.19
75424;BME280;64005;55.160;36.002;2024-01-06T07:11:49;98633.78;;;-13.90;68.24
75424;BME280;64005;55.160;36.002;2024-01-06T07:14:16;98636.78;;;-13.78;68.69
75424;BME280;64005;55.160;36.002;2024-01-06T07:16:44;98634.16;;;-13.72;68.22
75424;BME280;64005;55.160;36.002;2024-01-06T07:19:12;98636.00;;;-13.72;67.96
75424;BME280;64005;55.160;36.002;2024-01-06T07:21:39;98635.84;;;-13.71;68.02
75424;BME280;64005;55.160;36.002;2024-01-06T07:24:06;98634.81;;;-13.70;68.13
75424;BME280;64005;55.160;36.002;2024-01-06T07:26:33;98647.78;;;-13.66;68.02
75424;BME280;64005;55.160;36.002;2024-01-06T07:29:02;98640.97;;;-13.69;68.73
75424;BME280;64005;55.160;36.002;2024-01-06T07:31:29;98631.94;;;-13.68;68.64
75424;BME280;64005;55.160;36.002;2024-01-06T07:33:57;98630.34;;;-13.62;68.70
75424;BME280;64005;55.160;36.002;2024-01-06T07:36:25;98621.34;;;-13.55;68.71
75424;BME280;64005;55.160;36.002;2024-01-06T07:38:52;98624.66;;;-13.53;68.66
75424;BME280;64005;55.160;36.002;2024-01-06T07:41:21;98620.97;;;-13.52;68.78
75424;BME280;64005;55.160;36.002;2024-01-06T07:43:48;98627.16;;;-13.51;68.91
75424;BME280;64005;55.160;36.002;2024-01-06T07:46:15;98616.28;;;-13.50;68.68
75424;BME280;64005;55.160;36.002;2024-01-06T07:48:43;98622.06;;;-13.46;69.20
75424;BME280;64005;55.160;36.002;2024-01-06T07:51:11;98621.94;;;-13.38;69.25
75424;BME280;64005;55.160;36.002;2024-01-06T07:53:38;98625.47;;;-13.31;69.25
75424;BME280;64005;55.160;36.002;2024-01-06T07:56:06;98620.56;;;-13.27;68.83
75424;BME280;64005;55.160;36.002;2024-01-06T07:58:33;98628.22;;;-13.24;68.90
75424;BME280;64005;55.160;36.002;2024-01-06T08:01:00;98621.84;;;-13.23;69.04
75424;BME280;64005;55.160;36.002;2024-01-06T08:03:28;98610.81;;;-13.35;69.41
75424;BME280;64005;55.160;36.002;2024-01-06T08:05:55;98627.56;;;-13.26;68.98
75424;BME280;64005;55.160;36.002;2024-01-06T08:08:24;98616.09;;;-13.20;69.67
75424;BME280;64005;55.160;36.002;2024-01-06T08:10:51;98620.06;;;-13.10;69.94
75424;BME280;64005;55.160;36.002;2024-01-06T08:13:18;98614.31;;;-13.07;69.76
75424;BME280;64005;55.160;36.002;2024-01-06T08:15:45;98608.16;;;-13.01;70.07
75424;BME280;64005;55.160;36.002;2024-01-06T08:18:12;98600.59;;;-12.97;69.87
75424;BME280;64005;55.160;36.002;2024-01-06T08:20:40;98604.50;;;-12.93;70.29
75424;BME280;64005;55.160;36.002;2024-01-06T08:23:07;98608.25;;;-12.88;70.03
75424;BME280;64005;55.160;36.002;2024-01-06T08:25:35;98611.59;;;-12.79;70.31
75424;BME280;64005;55.160;36.002;2024-01-06T08:28:03;98609.38;;;-12.69;70.27
75424;BME280;64005;55.160;36.002;2024-01-06T08:30:30;98609.63;;;-12.64;69.89
75424;BME280;64005;55.160;36.002;2024-01-06T08:32:57;98610.88;;;-12.60;69.93
75424;BME280;64005;55.160;36.002;2024-01-06T08:35:25;98603.91;;;-12.54;69.72
75424;BME280;64005;55.160;36.002;2024-01-06T08:37:52;98609.88;;;-12.52;70.27
75424;BME280;64005;55.160;36.002;2024-01-06T08:40:19;98611.56;;;-12.51;69.96
75424;BME280;64005;55.160;36.002;2024-01-06T08:42:48;98607.88;;;-12.43;70.55
75424;BME280;64005;55.160;36.002;2024-01-06T08:45:15;98611.59;;;-12.38;70.10
75424;BME280;64005;55.160;36.002;2024-01-06T08:47:42;98607.69;;;-12.35;70.08
75424;BME280;64005;55.160;36.002;2024-01-06T08:50:09;98614.13;;;-12.30;70.00
75424;BME280;64005;55.160;36.002;2024-01-06T08:52:37;98622.19;;;-12.23;69.85
75424;BME280;64005;55.160;36.002;2024-01-06T08:55:05;98620.56;;;-12.18;70.19
75424;BME280;64005;55.160;36.002;2024-01-06T08:57:32;98619.53;;;-12.17;70.37
75424;BME280;64005;55.160;36.002;2024-01-06T09:00:01;98615.78;;;-12.16;70.02
75424;BME280;64005;55.160;36.002;2024-01-06T09:02:30;98609.03;;;-12.12;70.08
75424;BME280;64005;55.160;36.002;2024-01-06T09:04:57;98609.44;;;-12.08;70.55
75424;BME280;64005;55.160;36.002;2024-01-06T09:07:24;98607.19;;;-12.04;70.80
75424;BME280;64005;55.160;36.002;2024-01-06T09:09:52;98602.25;;;-12.01;70.44
75424;BME280;64005;55.160;36.002;2024-01-06T09:12:19;98597.72;;;-12.00;70.56
75424;BME280;64005;55.160;36.002;2024-01-06T09:14:46;98594.63;;;-11.97;70.44
75424;BME280;64005;55.160;36.002;2024-01-06T09:17:15;98600.63;;;-11.89;70.69
75424;BME280;64005;55.160;36.002;2024-01-06T09:19:42;98605.16;;;-11.83;70.91
75424;BME280;64005;55.160;36.002;2024-01-06T09:22:09;98601.91;;;-11.78;71.15
75424;BME280;64005;55.160;36.002;2024-01-06T09:24:37;98595.09;;;-11.74;70.52
75424;BME280;64005;55.160;36.002;2024-01-06T09:27:04;98599.41;;;-11.67;70.62
75424;BME280;64005;55.160;36.002;2024-01-06T09:29:31;98591.75;;;-11.63;70.55
75424;BME280;64005;55.160;36.002;2024-01-06T09:31:58;98590.13;;;-11.57;70.86
75424;BME280;64005;55.160;36.002;2024-01-06T09:34:27;98591.34;;;-11.53;70.88
75424;BME280;64005;55.160;36.002;2024-01-06T09:36:54;98589.06;;;-11.50;70.58
75424;BME280;64005;55.160;36.002;2024-01-06T09:39:21;98588.47;;;-11.45;70.81
75424;BME280;64005;55.160;36.002;2024-01-06T09:41:48;98585.81;;;-11.39;70.96
75424;BME280;64005;55.160;36.002;2024-01-06T09:44:16;98585.81;;;-11.32;71.42
75424;BME280;64005;55.160;36.002;2024-01-06T09:46:44;98590.34;;;-11.26;70.90
75424;BME280;64005;55.160;36.002;2024-01-06T09:49:12;98588.69;;;-11.20;70.91
75424;BME280;64005;55.160;36.002;2024-01-06T09:51:42;98589.28;;;-11.12;71.13
75424;BME280;64005;55.160;36.002;2024-01-06T09:54:12;98581.63;;;-11.08;71.42
75424;BME280;64005;55.160;36.002;2024-01-06T09:56:41;98577.72;;;-10.99;71.12
75424;BME280;64005;55.160;36.002;2024-01-06T09:59:12;98571.31;;;-10.92;71.06
75424;BME280;64005;55.160;36.002;2024-01-06T10:01:39;98573.34;;;-10.87;71.01
75424;BME280;64005;55.160;36.002;2024-01-06T10:04:07;98577.47;;;-10.84;71.17
75424;BME280;64005;55.160;36.002;2024-01-06T10:06:34;98576.03;;;-10.87;71.01
75424;BME280;64005;55.160;36.002;2024-01-06T10:09:03;98572.31;;;-10.93;70.25
75424;BME280;64005;55.160;36.002;2024-01-06T10:11:31;98573.75;;;-10.97;70.24
75424;BME280;64005;55.160;36.002;2024-01-06T10:13:58;98573.38;;;-11.00;70.55
75424;BME280;64005;55.160;36.002;2024-01-06T10:16:25;98572.97;;;-10.97;70.46
75424;BME280;64005;55.160;36.002;2024-01-06T10:18:53;98559.53;;;-10.97;70.68
75424;BME280;64005;55.160;36.002;2024-01-06T10:21:20;98566.75;;;-10.91;70.65
75424;BME280;64005;55.160;36.002;2024-01-06T10:23:48;98568.81;;;-10.87;70.63
75424;BME280;64005;55.160;36.002;2024-01-06T10:26:17;98560.34;;;-10.83;71.13
75424;BME280;64005;55.160;36.002;2024-01-06T10:28:45;98554.72;;;-10.82;71.38
75424;BME280;64005;55.160;36.002;2024-01-06T10:31:12;98560.31;;;-10.77;71.04
75424;BME280;64005;55.160;36.002;2024-01-06T10:33:39;98554.72;;;-10.75;70.94
75424;BME280;64005;55.160;36.002;2024-01-06T10:36:07;98556.56;;;-10.76;70.80
75424;BME280;64005;55.160;36.002;2024-01-06T10:38:35;98558.84;;;-10.73;70.89
75424;BME280;64005;55.160;36.002;2024-01-06T10:41:03;98555.97;;;-10.71;71.08
75424;BME280;64005;55.160;36.002;2024-01-06T10:43:35;98554.09;;;-10.71;71.07
75424;BME280;64005;55.160;36.002;2024-01-06T10:46:06;98562.56;;;-10.67;71.32
75424;BME280;64005;55.160;36.002;2024-01-06T10:48:37;98561.91;;;-10.63;70.83
75424;BME280;64005;55.160;36.002;2024-01-06T10:51:09;98560.66;;;-10.60;70.88
75424;BME280;64005;55.160;36.002;2024-01-06T10:53:37;98564.81;;;-10.58;71.03
75424;BME280;64005;55.160;36.002;2024-01-06T10:56:06;98570.56;;;-10.54;71.11
75424;BME280;64005;55.160;36.002;2024-01-06T10:58:36;98564.53;;;-10.50;70.38
75424;BME280;64005;55.160;36.002;2024-01-06T11:01:09;98574.91;;;-10.53;70.01
75424;BME280;64005;55.160;36.002;2024-01-06T11:03:36;98580.50;;;-10.55;70.36
75424;BME280;64005;55.160;36.002;2024-01-06T11:06:05;98569.94;;;-10.56;70.12
75424;BME280;64005;55.160;36.002;2024-01-06T11:08:36;98570.38;;;-10.59;70.39
75424;BME280;64005;55.160;36.002;2024-01-06T11:11:09;98571.81;;;-10.63;70.33
75424;BME280;64005;55.160;36.002;2024-01-06T11:13:37;98565.22;;;-10.61;70.97
75424;BME280;64005;55.160;36.002;2024-01-06T11:16:05;98571.22;;;-10.59;70.77
75424;BME280;64005;55.160;36.002;2024-01-06T11:18:35;98577.19;;;-10.57;70.96
75424;BME280;64005;55.160;36.002;2024-01-06T11:21:22;98584.44;;;-10.57;71.16
75424;BME280;64005;55.160;36.002;2024-01-06T11:24:14;98580.94;;;-10.58;70.90
75424;BME280;64005;55.160;36.002;2024-01-06T11:26:44;98586.69;;;-10.54;70.98
75424;BME280;64005;55.160;36.002;2024-01-06T11:29:13;98584.44;;;-10.51;70.95
75424;BME280;64005;55.160;36.002;2024-01-06T11:31:40;98590.19;;;-10.47;71.04
75424;BME280;64005;55.160;36.002;2024-01-06T11:34:15;98590.56;;;-10.43;70.83
75424;BME280;64005;55.160;36.002;2024-01-06T11:36:44;98583.56;;;-10.44;70.95
75424;BME280;64005;55.160;36.002;2024-01-06T11:39:33;98594.31;;;-10.44;70.67
75424;BME280;64005;55.160;36.002;2024-01-06T11:42:01;98596.19;;;-10.45;70.64
75424;BME280;64005;55.160;36.002;2024-01-06T11:44:33;98596.59;;;-10.48;70.64
75424;BME280;64005;55.160;36.002;2024-01-06T11:47:02;98605.69;;;-10.49;70.78
75424;BME280;64005;55.160;36.002;2024-01-06T11:49:29;98605.31;;;-10.53;70.69
75424;BME280;64005;55.160;36.002;2024-01-06T11:51:56;98601.59;;;-10.52;70.95
75424;BME280;64005;55.160;36.002;2024-01-06T11:54:24;98600.09;;;-10.48;70.52
75424;BME280;64005;55.160;36.002;2024-01-06T11:56:51;98603.00;;;-10.49;70.94
75424;BME280;64005;55.160;36.002;2024-01-06T11:59:19;98609.00;;;-10.47;71.01
75424;BME280;64005;55.160;36.002;2024-01-06T12:01:48;98611.03;;;-10.42;71.01
75424;BME280;64005;55.160;36.002;2024-01-06T12:04:15;98604.63;;;-10.41;70.57
75424;BME280;64005;55.160;36.002;2024-01-06T12:06:43;98603.59;;;-10.40;70.84
75424;BME280;64005;55.160;36.002;2024-01-06T12:09:11;98615.56;;;-10.36;71.13
75424;BME280;64005;55.160;36.002;2024-01-06T12:11:41;98605.06;;;-10.38;70.79
75424;BME280;64005;55.160;36.002;2024-01-06T12:14:10;98619.31;;;-10.31;70.68
75424;BME280;64005;55.160;36.002;2024-01-06T12:16:37;98613.91;;;-10.31;70.59
75424;BME280;64005;55.160;36.002;2024-01-06T12:19:06;98611.22;;;-10.31;71.12
75424;BME280;64005;55.160;36.002;2024-01-06T12:21:33;98616.38;;;-10.29;70.76
75424;BME280;64005;55.160;36.002;2024-01-06T12:24:15;98616.63;;;-10.31;70.60
75424;BME280;64005;55.160;36.002;2024-01-06T12:26:46;98623.88;;;-10.38;70.83
75424;BME280;64005;55.160;36.002;2024-01-06T12:29:14;98625.75;;;-10.45;70.77
75424;BME280;64005;55.160;36.002;2024-01-06T12:31:41;98620.81;;;-10.55;71.31
75424;BME280;64005;55.160;36.002;2024-01-06T12:34:10;98619.78;;;-10.54;71.13
75424;BME280;64005;55.160;36.002;2024-01-06T12:36:37;98627.84;;;-10.54;71.04
75424;BME280;64005;55.160;36.002;2024-01-06T12:39:06;98627.66;;;-10.59;70.56
75424;BME280;64005;55.160;36.002;2024-01-06T12:41:38;98636.31;;;-10.63;70.82
75424;BME280;64005;55.160;36.002;2024-01-06T12:44:06;98631.59;;;-10.68;70.39